sensor_id;sensor_type;location;lat;lon;timestamp;temperature;humidity
18577;DHT22;9418;52.694;13.294;2022-09-12T00:01:46;11.60;77.40
18577;DHT22;9418;52.694;13.294;2022-09-12T00:04:13;11.60;79.10
18577;DHT22;9418;52.694;13.294;2022-09-12T00:06:39;11.60;77.50
18577;DHT22;9418;52.694;13.294;2022-09-12T00:09:10;11.60;63.90
18577;DHT22;9418;52.694;13.294;2022-09-12T00:11:40;11.50;72.70
18577;DHT22;9418;52.694;13.294;2022-09-12T00:14:08;11.50;76.40
18577;DHT22;9418;52.694;13.294;2022-09-12T00:16:36;11.50;79.30
18577;DHT22;9418;52.694;13.294;2022-09-12T00:19:04;11.50;74.10
18577;DHT22;9418;52.694;13.294;2022-09-12T00:21:32;11.40;76.80
18577;DHT22;9418;52.694;13.294;2022-09-12T00:23:58;11.40;81.50
18577;DHT22;9418;52.694;13.294;2022-09-12T00:26:25;11.30;85.70
18577;DHT22;9418;52.694;13.294;2022-09-12T00:28:54;11.30;89.80
18577;DHT22;9418;52.694;13.294;2022-09-12T00:31:22;11.30;82.00
18577;DHT22;9418;52.694;13.294;2022-09-12T00:33:49;11.30;84.70
18577;DHT22;9418;52.694;13.294;2022-09-12T00:36:18;11.20;87.50
18577;DHT22;9418;52.694;13.294;2022-09-12T00:38:46;11.20;89.90
18577;DHT22;9418;52.694;13.294;2022-09-12T00:41:17;11.10;92.20
18577;DHT22;9418;52.694;13.294;2022-09-12T00:43:45;11.10;90.10
18577;DHT22;9418;52.694;13.294;2022-09-12T00:46:23;11.10;93.10
18577;DHT22;9418;52.694;13.294;2022-09-12T00:48:55;11.10;83.30
18577;DHT22;9418;52.694;13.294;2022-09-12T00:51:23;11.10;82.30
18577;DHT22;9418;52.694;13.294;2022-09-12T00:53:52;11.10;72.20
18577;DHT22;9418;52.694;13.294;2022-09-12T00:56:21;11.10;74.70
18577;DHT22;9418;52.694;13.294;2022-09-12T00:58:51;11.00;86.70
18577;DHT22;9418;52.694;13.294;2022-09-12T01:01:22;10.90;92.80
18577;DHT22;9418;52.694;13.294;2022-09-12T01:03:49;10.90;88.30
18577;DHT22;9418;52.694;13.294;2022-09-12T01:06:20;10.90;94.70
18577;DHT22;9418;52.694;13.294;2022-09-12T01:08:49;10.90;87.30
18577;DHT22;9418;52.694;13.294;2022-09-12T01:11:17;11.00;73.20
18577;DHT22;9418;52.694;13.294;2022-09-12T01:13:45;10.90;84.30
18577;DHT22;9418;52.694;13.294;2022-09-12T01:16:11;10.90;93.10
18577;DHT22;9418;52.694;13.294;2022-09-12T01:18:52;10.80;92.70
18577;DHT22;9418;52.694;13.294;2022-09-12T01:21:28;10.90;78.10
18577;DHT22;9418;52.694;13.294;2022-09-12T01:24:33;10.80;80.50
18577;DHT22;9418;52.694;13.294;2022-09-12T01:27:26;10.80;79.90
18577;DHT22;9418;52.694;13.294;2022-09-12T01:30:20;10.80;88.10
18577;DHT22;9418;52.694;13.294;2022-09-12T01:32:59;10.80;83.00
18577;DHT22;9418;52.694;13.294;2022-09-12T01:35:32;10.70;89.60
18577;DHT22;9418;52.694;13.294;2022-09-12T01:38:08;10.70;75.70
18577;DHT22;9418;52.694;13.294;2022-09-12T01:40:43;10.70;83.40
18577;DHT22;9418;52.694;13.294;2022-09-12T01:43:19;10.70;77.70
18577;DHT22;9418;52.694;13.294;2022-09-12T01:45:55;10.70;83.50
18577;DHT22;9418;52.694;13.294;2022-09-12T01:48:26;10.60;90.30
18577;DHT22;9418;52.694;13.294;2022-09-12T01:50:56;10.60;99.00
18577;DHT22;9418;52.694;13.294;2022-09-12T01:53:27;10.50;99.90
18577;DHT22;9418;52.694;13.294;2022-09-12T01:56:01;10.50;99.80
18577;DHT22;9418;52.694;13.294;2022-09-12T01:58:35;10.40;99.90
18577;DHT22;9418;52.694;13.294;2022-09-12T02:01:07;10.40;98.90
18577;DHT22;9418;52.694;13.294;2022-09-12T02:03:40;10.40;99.90
18577;DHT22;9418;52.694;13.294;2022-09-12T02:06:14;10.40;99.90
18577;DHT22;9418;52.694;13.294;2022-09-12T02:08:45;10.40;94.80
18577;DHT22;9418;52.694;13.294;2022-09-12T02:11:13;10.40;88.00
18577;DHT22;9418;52.694;13.294;2022-09-12T02:13:41;10.40;99.90
18577;DHT22;9418;52.694;13.294;2022-09-12T02:16:13;10.40;89.90
18577;DHT22;9418;52.694;13.294;2022-09-12T02:18:44;10.30;90.40
18577;DHT22;9418;52.694;13.294;2022-09-12T02:21:12;10.30;96.70
18577;DHT22;9418;52.694;13.294;2022-09-12T02:23:44;10.40;84.80
18577;DHT22;9418;52.694;13.294;2022-09-12T02:26:16;10.40;94.00
18577;DHT22;9418;52.694;13.294;2022-09-12T02:28:44;10.30;92.70
18577;DHT22;9418;52.694;13.294;2022-09-12T02:31:19;10.30;99.90
18577;DHT22;9418;52.694;13.294;2022-09-12T02:33:53;10.20;99.90
18577;DHT22;9418;52.694;13.294;2022-09-12T02:36:31;10.20;91.20
18577;DHT22;9418;52.694;13.294;2022-09-12T02:38:59;10.20;91.30
18577;DHT22;9418;52.694;13.294;2022-09-12T02:41:26;10.20;92.20
18577;DHT22;9418;52.694;13.294;2022-09-12T02:43:53;10.20;88.40
18577;DHT22;9418;52.694;13.294;2022-09-12T02:46:25;10.20;88.90
18577;DHT22;9418;52.694;13.294;2022-09-12T02:48:54;10.20;90.50
18577;DHT22;9418;52.694;13.294;2022-09-12T02:51:21;10.20;96.50
18577;DHT22;9418;52.694;13.294;2022-09-12T02:53:48;10.10;98.80
18577;DHT22;9418;52.694;13.294;2022-09-12T02:56:18;10.10;99.90
18577;DHT22;9418;52.694;13.294;2022-09-12T02:58:46;10.10;99.90
18577;DHT22;9418;52.694;13.294;2022-09-12T03:01:23;10.00;99.90
18577;DHT22;9418;52.694;13.294;2022-09-12T03:04:08;10.00;99.90
18577;DHT22;9418;52.694;13.294;2022-09-12T03:06:44;10.00;99.90
18577;DHT22;9418;52.694;13.294;2022-09-12T03:09:16;10.00;99.90
18577;DHT22;9418;52.694;13.294;2022-09-12T03:12:00;10.00;99.90
18577;DHT22;9418;52.694;13.294;2022-09-12T03:14:45;10.00;99.90
18577;DHT22;9418;52.694;13.294;2022-09-12T03:17:21;10.00;99.90
18577;DHT22;9418;52.694;13.294;2022-09-12T03:19:55;10.00;96.80
18577;DHT22;9418;52.694;13.294;2022-09-12T03:22:28;9.90;98.50
18577;DHT22;9418;52.694;13.294;2022-09-12T03:25:03;10.00;94.10
18577;DHT22;9418;52.694;13.294;2022-09-12T03:27:33;9.90;88.70
18577;DHT22;9418;52.694;13.294;2022-09-12T03:30:03;9.90;93.70
18577;DHT22;9418;52.694;13.294;2022-09-12T03:32:42;9.90;97.60
18577;DHT22;9418;52.694;13.294;2022-09-12T03:35:10;9.90;99.80
18577;DHT22;9418;52.694;13.294;2022-09-12T03:37:36;9.90;96.20
18577;DHT22;9418;52.694;13.294;2022-09-12T03:40:06;9.90;97.30
18577;DHT22;9418;52.694;13.294;2022-09-12T03:42:33;9.90;96.80
18577;DHT22;9418;52.694;13.294;2022-09-12T03:45:00;9.90;99.90
18577;DHT22;9418;52.694;13.294;2022-09-12T03:47:26;9.90;99.90
18577;DHT22;9418;52.694;13.294;2022-09-12T03:49:54;9.90;99.90
18577;DHT22;9418;52.694;13.294;2022-09-12T03:52:21;9.80;99.90
18577;DHT22;9418;52.694;13.294;2022-09-12T03:54:48;9.80;99.90
18577;DHT22;9418;52.694;13.294;2022-09-12T03:57:15;9.90;92.60
18577;DHT22;9418;52.694;13.294;2022-09-12T03:59:41;9.90;97.50
18577;DHT22;9418;52.694;13.294;2022-09-12T04:02:08;9.80;99.90
18577;DHT22;9418;52.694;13.294;2022-09-12T04:04:37;9.80;99.90
18577;DHT22;9418;52.694;13.294;2022-09-12T04:07:05;9.80;99.40
18577;DHT22;9418;52.694;13.294;2022-09-12T04:09:31;9.70;99.90
18577;DHT22;9418;52.694;13.294;2022-09-12T04:11:58;9.80;99.90
18577;DHT22;9418;52.694;13.294;2022-09-12T04:14:24;9.70;99.90
18577;DHT22;9418;52.694;13.294;2022-09-12T04:16:51;9.80;92.70
18577;DHT22;9418;52.694;13.294;2022-09-12T04:19:17;9.70;99.90
18577;DHT22;9418;52.694;13.294;2022-09-12T04:21:44;9.70;99.60
18577;DHT22;9418;52.694;13.294;2022-09-12T04:24:12;9.70;99.90
18577;DHT22;9418;52.694;13.294;2022-09-12T04:26:39;9.70;99.90
18577;DHT22;9418;52.694;13.294;2022-09-12T04:29:05;9.60;99.90
18577;DHT22;9418;52.694;13.294;2022-09-12T04:31:32;9.60;99.90
18577;DHT22;9418;52.694;13.294;2022-09-12T04:33:59;9.60;99.90
18577;DHT22;9418;52.694;13.294;2022-09-12T04:36:27;9.60;99.90
18577;DHT22;9418;52.694;13.294;2022-09-12T04:38:54;9.60;99.90
18577;DHT22;9418;52.694;13.294;2022-09-12T04:41:24;9.60;99.90
18577;DHT22;9418;52.694;13.294;2022-09-12T04:43:53;9.60;99.90
18577;DHT22;9418;52.694;13.294;2022-09-12T04:46:20;9.60;99.90
18577;DHT22;9418;52.694;13.294;2022-09-12T04:48:47;9.60;99.90
18577;DHT22;9418;52.694;13.294;2022-09-12T04:51:16;9.70;99.90
18577;DHT22;9418;52.694;13.294;2022-09-12T04:53:47;9.70;99.90
18577;DHT22;9418;52.694;13.294;2022-09-12T04:56:14;9.60;99.90
18577;DHT22;9418;52.694;13.294;2022-09-12T04:58:42;9.70;99.90
18577;DHT22;9418;52.694;13.294;2022-09-12T05:01:11;9.70;99.90
18577;DHT22;9418;52.694;13.294;2022-09-12T05:03:38;9.80;75.20
18577;DHT22;9418;52.694;13.294;2022-09-12T05:06:10;9.80;87.20
18577;DHT22;9418;52.694;13.294;2022-09-12T05:08:37;9.80;82.90
18577;DHT22;9418;52.694;13.294;2022-09-12T05:11:05;9.80;82.10
18577;DHT22;9418;52.694;13.294;2022-09-12T05:13:33;9.80;77.00
18577;DHT22;9418;52.694;13.294;2022-09-12T05:16:02;9.80;76.20
18577;DHT22;9418;52.694;13.294;2022-09-12T05:18:31;9.80;74.50
18577;DHT22;9418;52.694;13.294;2022-09-12T05:20:58;9.90;70.60
18577;DHT22;9418;52.694;13.294;2022-09-12T05:23:25;9.80;71.00
18577;DHT22;9418;52.694;13.294;2022-09-12T05:25:53;9.80;70.70
18577;DHT22;9418;52.694;13.294;2022-09-12T05:28:20;9.90;59.70
18577;DHT22;9418;52.694;13.294;2022-09-12T05:30:58;9.90;66.10
18577;DHT22;9418;52.694;13.294;2022-09-12T05:33:26;9.90;66.60
18577;DHT22;9418;52.694;13.294;2022-09-12T05:35:52;10.00;65.80
18577;DHT22;9418;52.694;13.294;2022-09-12T05:38:19;10.00;68.40
18577;DHT22;9418;52.694;13.294;2022-09-12T05:40:45;10.00;67.70
18577;DHT22;9418;52.694;13.294;2022-09-12T05:43:12;10.10;66.70
18577;DHT22;9418;52.694;13.294;2022-09-12T05:45:39;10.20;65.30
18577;DHT22;9418;52.694;13.294;2022-09-12T05:48:06;10.20;62.90
18577;DHT22;9418;52.694;13.294;2022-09-12T05:50:34;10.30;61.20
18577;DHT22;9418;52.694;13.294;2022-09-12T05:53:01;10.30;60.80
18577;DHT22;9418;52.694;13.294;2022-09-12T05:55:27;10.40;59.60
18577;DHT22;9418;52.694;13.294;2022-09-12T05:57:55;10.50;57.30
18577;DHT22;9418;52.694;13.294;2022-09-12T06:00:22;10.60;54.20
18577;DHT22;9418;52.694;13.294;2022-09-12T06:02:50;10.70;50.40
18577;DHT22;9418;52.694;13.294;2022-09-12T06:05:17;10.80;48.30
18577;DHT22;9418;52.694;13.294;2022-09-12T06:07:46;10.90;46.50
18577;DHT22;9418;52.694;13.294;2022-09-12T06:10:12;10.90;46.10
18577;DHT22;9418;52.694;13.294;2022-09-12T06:12:40;11.00;44.20
18577;DHT22;9418;52.694;13.294;2022-09-12T06:15:08;11.10;43.00
18577;DHT22;9418;52.694;13.294;2022-09-12T06:17:35;11.20;41.30
18577;DHT22;9418;52.694;13.294;2022-09-12T06:20:02;11.30;38.40
18577;DHT22;9418;52.694;13.294;2022-09-12T06:22:29;11.40;35.40
18577;DHT22;9418;52.694;13.294;2022-09-12T06:24:57;11.40;35.60
18577;DHT22;9418;52.694;13.294;2022-09-12T06:27:24;11.50;34.70
18577;DHT22;9418;52.694;13.294;2022-09-12T06:29:51;11.60;33.90
18577;DHT22;9418;52.694;13.294;2022-09-12T06:32:17;11.60;30.00
18577;DHT22;9418;52.694;13.294;2022-09-12T06:34:44;11.70;27.20
18577;DHT22;9418;52.694;13.294;2022-09-12T06:37:13;11.80;24.80
18577;DHT22;9418;52.694;13.294;2022-09-12T06:39:39;11.90;23.60
18577;DHT22;9418;52.694;13.294;2022-09-12T06:42:07;12.00;22.70
18577;DHT22;9418;52.694;13.294;2022-09-12T06:44:34;12.10;21.90
18577;DHT22;9418;52.694;13.294;2022-09-12T06:47:01;12.10;20.60
18577;DHT22;9418;52.694;13.294;2022-09-12T06:49:28;12.20;72.80
18577;DHT22;9418;52.694;13.294;2022-09-12T06:51:55;12.30;79.70
18577;DHT22;9418;52.694;13.294;2022-09-12T06:54:21;12.30;81.00
18577;DHT22;9418;52.694;13.294;2022-09-12T06:56:50;12.40;85.90
18577;DHT22;9418;52.694;13.294;2022-09-12T06:59:18;12.50;85.60
18577;DHT22;9418;52.694;13.294;2022-09-12T07:01:45;12.50;90.50
18577;DHT22;9418;52.694;13.294;2022-09-12T07:04:12;12.60;98.40
18577;DHT22;9418;52.694;13.294;2022-09-12T07:06:40;12.70;99.90
18577;DHT22;9418;52.694;13.294;2022-09-12T07:09:11;12.80;99.90
18577;DHT22;9418;52.694;13.294;2022-09-12T07:11:40;12.90;99.90
18577;DHT22;9418;52.694;13.294;2022-09-12T07:14:08;12.90;85.50
18577;DHT22;9418;52.694;13.294;2022-09-12T07:16:37;13.00;90.00
18577;DHT22;9418;52.694;13.294;2022-09-12T07:19:05;13.10;81.80
18577;DHT22;9418;52.694;13.294;2022-09-12T07:21:32;13.20;90.80
18577;DHT22;9418;52.694;13.294;2022-09-12T07:24:01;13.40;97.20
18577;DHT22;9418;52.694;13.294;2022-09-12T07:26:28;13.60;94.50
18577;DHT22;9418;52.694;13.294;2022-09-12T07:28:56;13.60;85.00
18577;DHT22;9418;52.694;13.294;2022-09-12T07:31:25;13.70;77.00
18577;DHT22;9418;52.694;13.294;2022-09-12T07:33:53;13.80;20.00
18577;DHT22;9418;52.694;13.294;2022-09-12T07:36:21;13.80;23.10
18577;DHT22;9418;52.694;13.294;2022-09-12T07:38:52;13.90;26.20
18577;DHT22;9418;52.694;13.294;2022-09-12T07:41:20;13.90;29.90
18577;DHT22;9418;52.694;13.294;2022-09-12T07:43:50;14.00;31.80
18577;DHT22;9418;52.694;13.294;2022-09-12T07:46:17;14.10;34.80
18577;DHT22;9418;52.694;13.294;2022-09-12T07:48:44;14.20;40.10
18577;DHT22;9418;52.694;13.294;2022-09-12T07:51:15;14.30;45.20
18577;DHT22;9418;52.694;13.294;2022-09-12T07:53:43;14.30;51.00
18577;DHT22;9418;52.694;13.294;2022-09-12T07:56:10;14.40;53.70
18577;DHT22;9418;52.694;13.294;2022-09-12T07:58:38;14.60;58.00
18577;DHT22;9418;52.694;13.294;2022-09-12T08:01:08;14.60;73.00
18577;DHT22;9418;52.694;13.294;2022-09-12T08:03:35;14.70;87.70
18577;DHT22;9418;52.694;13.294;2022-09-12T08:06:03;14.80;99.90
18577;DHT22;9418;52.694;13.294;2022-09-12T08:08:31;15.00;99.90
18577;DHT22;9418;52.694;13.294;2022-09-12T08:10:58;15.10;99.90
18577;DHT22;9418;52.694;13.294;2022-09-12T08:13:25;15.20;99.90
18577;DHT22;9418;52.694;13.294;2022-09-12T08:15:56;15.30;99.90
18577;DHT22;9418;52.694;13.294;2022-09-12T08:18:24;15.40;99.90
18577;DHT22;9418;52.694;13.294;2022-09-12T08:20:55;15.50;99.90
18577;DHT22;9418;52.694;13.294;2022-09-12T08:23:22;15.60;99.90
18577;DHT22;9418;52.694;13.294;2022-09-12T08:25:50;15.80;99.90
18577;DHT22;9418;52.694;13.294;2022-09-12T08:28:17;15.90;99.90
18577;DHT22;9418;52.694;13.294;2022-09-12T08:30:44;16.00;99.90
18577;DHT22;9418;52.694;13.294;2022-09-12T08:33:10;16.00;44.00
18577;DHT22;9418;52.694;13.294;2022-09-12T08:35:37;16.10;37.80
18577;DHT22;9418;52.694;13.294;2022-09-12T08:38:04;16.20;53.20
18577;DHT22;9418;52.694;13.294;2022-09-12T08:40:31;16.30;57.00
18577;DHT22;9418;52.694;13.294;2022-09-12T08:43:03;16.30;72.20
18577;DHT22;9418;52.694;13.294;2022-09-12T08:45:35;16.40;97.10
18577;DHT22;9418;52.694;13.294;2022-09-12T08:48:06;16.60;91.40
18577;DHT22;9418;52.694;13.294;2022-09-12T08:50:34;16.70;99.90
18577;DHT22;9418;52.694;13.294;2022-09-12T08:53:03;16.80;99.90
18577;DHT22;9418;52.694;13.294;2022-09-12T08:55:33;16.90;99.90
18577;DHT22;9418;52.694;13.294;2022-09-12T08:58:09;16.90;99.90
18577;DHT22;9418;52.694;13.294;2022-09-12T09:00:41;17.10;99.90
18577;DHT22;9418;52.694;13.294;2022-09-12T09:06:18;17.30;99.90
18577;DHT22;9418;52.694;13.294;2022-09-12T09:08:55;17.40;99.90
18577;DHT22;9418;52.694;13.294;2022-09-12T09:11:36;17.60;99.90
18577;DHT22;9418;52.694;13.294;2022-09-12T09:14:18;17.70;99.90
18577;DHT22;9418;52.694;13.294;2022-09-12T09:17:08;17.80;99.90
18577;DHT22;9418;52.694;13.294;2022-09-12T09:19:40;17.80;99.90
18577;DHT22;9418;52.694;13.294;2022-09-12T09:22:12;18.00;99.90
18577;DHT22;9418;52.694;13.294;2022-09-12T09:24:46;18.10;99.90
18577;DHT22;9418;52.694;13.294;2022-09-12T09:27:22;18.10;33.50
18577;DHT22;9418;52.694;13.294;2022-09-12T09:29:54;18.30;38.70
18577;DHT22;9418;52.694;13.294;2022-09-12T09:32:26;18.40;37.20
18577;DHT22;9418;52.694;13.294;2022-09-12T09:34:52;18.40;55.10
18577;DHT22;9418;52.694;13.294;2022-09-12T09:37:24;18.40;61.10
18577;DHT22;9418;52.694;13.294;2022-09-12T09:40:01;18.30;61.10
18577;DHT22;9418;52.694;13.294;2022-09-12T09:42:40;18.30;52.10
18577;DHT22;9418;52.694;13.294;2022-09-12T09:45:16;18.40;37.40
18577;DHT22;9418;52.694;13.294;2022-09-12T09:47:44;18.50;53.90
18577;DHT22;9418;52.694;13.294;2022-09-12T09:50:14;18.40;45.80
18577;DHT22;9418;52.694;13.294;2022-09-12T09:52:42;18.50;56.50
18577;DHT22;9418;52.694;13.294;2022-09-12T09:55:15;18.60;68.90
18577;DHT22;9418;52.694;13.294;2022-09-12T09:57:45;18.60;76.00
18577;DHT22;9418;52.694;13.294;2022-09-12T10:00:30;18.60;61.10
18577;DHT22;9418;52.694;13.294;2022-09-12T10:03:22;18.70;61.40
18577;DHT22;9418;52.694;13.294;2022-09-12T10:05:51;18.80;84.20
18577;DHT22;9418;52.694;13.294;2022-09-12T10:08:23;18.90;71.80
18577;DHT22;9418;52.694;13.294;2022-09-12T10:10:58;18.90;84.80
18577;DHT22;9418;52.694;13.294;2022-09-12T10:13:36;19.00;74.80
18577;DHT22;9418;52.694;13.294;2022-09-12T10:16:06;19.10;82.10
18577;DHT22;9418;52.694;13.294;2022-09-12T10:18:42;19.10;88.40
18577;DHT22;9418;52.694;13.294;2022-09-12T10:21:14;19.20;89.50
18577;DHT22;9418;52.694;13.294;2022-09-12T10:23:44;19.30;94.60
18577;DHT22;9418;52.694;13.294;2022-09-12T10:26:13;19.20;99.90
18577;DHT22;9418;52.694;13.294;2022-09-12T10:28:43;19.10;99.90
18577;DHT22;9418;52.694;13.294;2022-09-12T10:31:14;19.10;99.90
18577;DHT22;9418;52.694;13.294;2022-09-12T10:33:44;19.20;99.90
18577;DHT22;9418;52.694;13.294;2022-09-12T10:36:16;19.20;99.90
18577;DHT22;9418;52.694;13.294;2022-09-12T10:38:48;19.30;99.90
18577;DHT22;9418;52.694;13.294;2022-09-12T10:41:16;19.50;99.90
18577;DHT22;9418;52.694;13.294;2022-09-12T10:43:43;19.80;99.90
18577;DHT22;9418;52.694;13.294;2022-09-12T10:46:25;19.70;99.90
18577;DHT22;9418;52.694;13.294;2022-09-12T10:49:11;19.60;99.90
18577;DHT22;9418;52.694;13.294;2022-09-12T10:51:39;19.50;99.90
18577;DHT22;9418;52.694;13.294;2022-09-12T10:54:09;19.50;99.90
18577;DHT22;9418;52.694;13.294;2022-09-12T10:56:41;19.30;99.90
18577;DHT22;9418;52.694;13.294;2022-09-12T10:59:21;19.10;99.90
18577;DHT22;9418;52.694;13.294;2022-09-12T11:01:56;18.90;99.90
18577;DHT22;9418;52.694;13.294;2022-09-12T11:04:28;18.80;99.90
18577;DHT22;9418;52.694;13.294;2022-09-12T11:07:10;18.70;99.90
18577;DHT22;9418;52.694;13.294;2022-09-12T11:09:49;18.50;94.40
18577;DHT22;9418;52.694;13.294;2022-09-12T11:12:23;18.40;85.00
18577;DHT22;9418;52.694;13.294;2022-09-12T11:15:06;18.40;72.50
18577;DHT22;9418;52.694;13.294;2022-09-12T11:17:44;18.30;74.70
18577;DHT22;9418;52.694;13.294;2022-09-12T11:20:36;18.20;71.70
18577;DHT22;9418;52.694;13.294;2022-09-12T11:23:39;18.20;70.70
18577;DHT22;9418;52.694;13.294;2022-09-12T11:26:16;18.20;66.40
18577;DHT22;9418;52.694;13.294;2022-09-12T11:28:55;18.20;63.20
18577;DHT22;9418;52.694;13.294;2022-09-12T11:31:42;18.20;67.40
18577;DHT22;9418;52.694;13.294;2022-09-12T11:34:19;18.20;68.80
18577;DHT22;9418;52.694;13.294;2022-09-12T11:36:56;18.20;66.70
18577;DHT22;9418;52.694;13.294;2022-09-12T11:39:30;18.20;59.10
18577;DHT22;9418;52.694;13.294;2022-09-12T11:42:02;18.20;60.60
18577;DHT22;9418;52.694;13.294;2022-09-12T11:44:34;18.20;67.10
18577;DHT22;9418;52.694;13.294;2022-09-12T11:47:04;18.40;58.70
18577;DHT22;9418;52.694;13.294;2022-09-12T11:49:37;18.50;80.20
18577;DHT22;9418;52.694;13.294;2022-09-12T11:52:12;18.60;68.60
18577;DHT22;9418;52.694;13.294;2022-09-12T11:54:42;18.60;62.20
18577;DHT22;9418;52.694;13.294;2022-09-12T11:57:14;18.70;71.80
18577;DHT22;9418;52.694;13.294;2022-09-12T11:59:45;18.70;65.10
18577;DHT22;9418;52.694;13.294;2022-09-12T12:02:18;18.90;71.90
18577;DHT22;9418;52.694;13.294;2022-09-12T12:04:58;19.00;91.10
18577;DHT22;9418;52.694;13.294;2022-09-12T12:07:30;19.10;99.90
18577;DHT22;9418;52.694;13.294;2022-09-12T12:10:00;19.10;99.90
18577;DHT22;9418;52.694;13.294;2022-09-12T12:12:27;19.30;99.90
18577;DHT22;9418;52.694;13.294;2022-09-12T12:14:55;19.40;99.90
18577;DHT22;9418;52.694;13.294;2022-09-12T12:17:23;19.40;99.90
18577;DHT22;9418;52.694;13.294;2022-09-12T12:19:59;19.50;99.90
18577;DHT22;9418;52.694;13.294;2022-09-12T12:22:26;19.40;99.90
18577;DHT22;9418;52.694;13.294;2022-09-12T12:24:58;19.50;99.90
18577;DHT22;9418;52.694;13.294;2022-09-12T12:27:45;19.50;99.90
18577;DHT22;9418;52.694;13.294;2022-09-12T12:33:53;19.70;99.90
18577;DHT22;9418;52.694;13.294;2022-09-12T12:36:39;19.70;99.90
18577;DHT22;9418;52.694;13.294;2022-09-12T12:45:47;19.50;99.90
18577;DHT22;9418;52.694;13.294;2022-09-12T12:48:15;19.60;99.90
18577;DHT22;9418;52.694;13.294;2022-09-12T12:50:44;19.60;99.90
18577;DHT22;9418;52.694;13.294;2022-09-12T12:53:20;19.60;99.90
18577;DHT22;9418;52.694;13.294;2022-09-12T12:55:50;19.80;99.90
18577;DHT22;9418;52.694;13.294;2022-09-12T12:58:28;19.70;99.90
18577;DHT22;9418;52.694;13.294;2022-09-12T13:01:06;19.80;99.90
18577;DHT22;9418;52.694;13.294;2022-09-12T13:03:36;19.80;99.90
18577;DHT22;9418;52.694;13.294;2022-09-12T13:06:06;19.80;99.90
18577;DHT22;9418;52.694;13.294;2022-09-12T13:08:37;19.80;99.90
18577;DHT22;9418;52.694;13.294;2022-09-12T13:11:07;19.90;99.90
18577;DHT22;9418;52.694;13.294;2022-09-12T13:13:38;19.90;99.90
18577;DHT22;9418;52.694;13.294;2022-09-12T13:16:08;19.90;99.90
18577;DHT22;9418;52.694;13.294;2022-09-12T13:18:41;19.80;99.90
18577;DHT22;9418;52.694;13.294;2022-09-12T13:21:12;19.80;99.90
18577;DHT22;9418;52.694;13.294;2022-09-12T13:23:41;19.80;99.90
18577;DHT22;9418;52.694;13.294;2022-09-12T13:26:10;19.80;99.90
18577;DHT22;9418;52.694;13.294;2022-09-12T13:28:37;19.80;99.90
18577;DHT22;9418;52.694;13.294;2022-09-12T13:31:10;19.80;99.90
18577;DHT22;9418;52.694;13.294;2022-09-12T13:33:40;19.80;99.90
18577;DHT22;9418;52.694;13.294;2022-09-12T13:36:28;19.70;99.90
18577;DHT22;9418;52.694;13.294;2022-09-12T13:39:11;19.70;99.90
18577;DHT22;9418;52.694;13.294;2022-09-12T13:41:52;19.70;99.90
18577;DHT22;9418;52.694;13.294;2022-09-12T13:44:25;19.70;99.90
18577;DHT22;9418;52.694;13.294;2022-09-12T13:46:54;19.70;99.90
18577;DHT22;9418;52.694;13.294;2022-09-12T13:49:28;19.70;99.90
18577;DHT22;9418;52.694;13.294;2022-09-12T13:51:59;19.60;99.90
18577;DHT22;9418;52.694;13.294;2022-09-12T13:54:29;19.70;99.90
18577;DHT22;9418;52.694;13.294;2022-09-12T13:56:56;19.70;99.90
18577;DHT22;9418;52.694;13.294;2022-09-12T13:59:24;19.70;99.90
18577;DHT22;9418;52.694;13.294;2022-09-12T14:01:51;19.70;99.90
18577;DHT22;9418;52.694;13.294;2022-09-12T14:04:19;19.70;99.90
18577;DHT22;9418;52.694;13.294;2022-09-12T14:07:11;19.70;99.90
18577;DHT22;9418;52.694;13.294;2022-09-12T14:09:42;19.70;99.90
18577;DHT22;9418;52.694;13.294;2022-09-12T14:12:13;19.60;99.90
18577;DHT22;9418;52.694;13.294;2022-09-12T14:14:47;19.70;99.90
18577;DHT22;9418;52.694;13.294;2022-09-12T14:17:15;19.60;99.90
18577;DHT22;9418;52.694;13.294;2022-09-12T14:19:42;19.60;99.90
18577;DHT22;9418;52.694;13.294;2022-09-12T14:22:12;19.60;99.90
18577;DHT22;9418;52.694;13.294;2022-09-12T14:24:44;19.50;99.90
18577;DHT22;9418;52.694;13.294;2022-09-12T14:27:17;19.50;99.90
18577;DHT22;9418;52.694;13.294;2022-09-12T14:29:45;19.40;99.90
18577;DHT22;9418;52.694;13.294;2022-09-12T14:32:20;19.40;99.90
18577;DHT22;9418;52.694;13.294;2022-09-12T14:35:03;19.40;99.90
18577;DHT22;9418;52.694;13.294;2022-09-12T14:37:29;19.30;99.90
18577;DHT22;9418;52.694;13.294;2022-09-12T14:39:57;19.30;99.90
18577;DHT22;9418;52.694;13.294;2022-09-12T14:42:28;19.30;99.90
18577;DHT22;9418;52.694;13.294;2022-09-12T14:45:00;19.30;99.90
18577;DHT22;9418;52.694;13.294;2022-09-12T14:47:30;19.30;99.90
18577;DHT22;9418;52.694;13.294;2022-09-12T14:49:59;19.20;99.90
18577;DHT22;9418;52.694;13.294;2022-09-12T14:52:28;19.20;99.90
18577;DHT22;9418;52.694;13.294;2022-09-12T14:55:00;19.20;99.90
18577;DHT22;9418;52.694;13.294;2022-09-12T14:57:34;19.20;99.90
18577;DHT22;9418;52.694;13.294;2022-09-12T15:00:21;19.20;99.90
18577;DHT22;9418;52.694;13.294;2022-09-12T15:02:49;19.10;99.90
18577;DHT22;9418;52.694;13.294;2022-09-12T15:05:19;19.10;99.90
18577;DHT22;9418;52.694;13.294;2022-09-12T15:07:52;19.10;99.90
18577;DHT22;9418;52.694;13.294;2022-09-12T15:10:23;19.10;99.90
18577;DHT22;9418;52.694;13.294;2022-09-12T15:13:12;19.10;99.90
18577;DHT22;9418;52.694;13.294;2022-09-12T15:15:41;19.00;99.90
18577;DHT22;9418;52.694;13.294;2022-09-12T15:18:08;19.00;99.90
18577;DHT22;9418;52.694;13.294;2022-09-12T15:20:36;19.00;99.90
18577;DHT22;9418;52.694;13.294;2022-09-12T15:23:05;18.90;99.90
18577;DHT22;9418;52.694;13.294;2022-09-12T15:25:34;18.90;99.90
18577;DHT22;9418;52.694;13.294;2022-09-12T15:28:04;18.90;99.90
18577;DHT22;9418;52.694;13.294;2022-09-12T15:30:31;18.90;99.90
18577;DHT22;9418;52.694;13.294;2022-09-12T15:32:58;18.80;99.90
18577;DHT22;9418;52.694;13.294;2022-09-12T15:35:27;18.80;99.90
18577;DHT22;9418;52.694;13.294;2022-09-12T15:37:56;18.80;99.90
18577;DHT22;9418;52.694;13.294;2022-09-12T15:40:23;18.80;99.90
18577;DHT22;9418;52.694;13.294;2022-09-12T15:42:52;18.70;99.90
18577;DHT22;9418;52.694;13.294;2022-09-12T15:45:20;18.80;99.90
18577;DHT22;9418;52.694;13.294;2022-09-12T15:47:48;18.70;99.90
18577;DHT22;9418;52.694;13.294;2022-09-12T15:50:15;18.70;99.90
18577;DHT22;9418;52.694;13.294;2022-09-12T15:52:41;18.70;99.90
18577;DHT22;9418;52.694;13.294;2022-09-12T15:55:11;18.70;99.90
18577;DHT22;9418;52.694;13.294;2022-09-12T15:57:40;18.60;99.90
18577;DHT22;9418;52.694;13.294;2022-09-12T16:00:09;18.60;99.90
18577;DHT22;9418;52.694;13.294;2022-09-12T16:02:36;18.60;99.90
18577;DHT22;9418;52.694;13.294;2022-09-12T16:05:03;18.60;99.90
18577;DHT22;9418;52.694;13.294;2022-09-12T16:07:30;18.60;99.90
18577;DHT22;9418;52.694;13.294;2022-09-12T16:09:57;18.50;99.90